Horton, Michigan
Current Conditions -  °F | °C
As of 11:56 PM on Sunday 21 Dec 2014 (Local Time) from KJXN Reporting Station
Haze Haze  
Wind Chill: 19°   Ceiling: Unl
Heat Index: 27°   Visibility: 5mi
Dew Point: 24°   Wind: 8mph
Humidity: 89%   Direction: 130°SE
Pressure: 30.14"   Gusts: NA
Location:  42.15°N, 84.52°W
Report Text: KJXN 220456Z 13007KT 5SM BR CLR M03/M04 A3014 RMK AO2 SLP218 T10281044 400111033
Loading
Personal Weather Stations






























Interactive Weather Map New forecast layout! Learn more

10-Day Weather Forecast

Advertisements
Track Severe Weather on mobile